Albert, Kansas
Current Conditions -  °F | °C
As of 8:35 PM on Friday 28 Nov 2014 (Local Time) from KGBD Reporting Station
Clear Clear  
Wind Chill:   Ceiling: Unl
Heat Index:   Visibility: 10mi
Dew Point: -2°   Wind: 13mph
Humidity: 46%   Direction: 200°SSW
Pressure: 29.75"   Gusts: NA
Location:  38.45°N, 99.01°W
Report Text: KGBD 290235Z AUTO 20011KT 10SM CLR 09/M02 A2975 RMK AO1
Loading
Personal Weather Stations






























Interactive Weather Map New forecast layout! Learn more

10-Day Weather Forecast

Advertisements
Track Severe Weather on mobile